createdAt,value
2022-11-08T06:01:15.568Z,72.62
2022-11-08T06:06:36.421Z,72.82
2022-11-08T06:11:57.518Z,72.73
2022-11-08T06:17:18.742Z,72.08
2022-11-08T06:22:39.843Z,72.49
2022-11-08T06:28:00.945Z,72.08
2022-11-08T06:33:22.159Z,72.56
2022-11-08T06:38:42.809Z,72.19
2022-11-08T06:44:03.762Z,72.53
2022-11-08T06:49:24.827Z,71.93
2022-11-08T06:54:45.709Z,72.00
2022-11-08T07:00:07.095Z,72.35
2022-11-08T07:05:30.074Z,72.33
2022-11-08T07:10:51.691Z,72.61
2022-11-08T07:16:12.574Z,72.03
2022-11-08T07:21:33.342Z,71.75
2022-11-08T07:26:54.176Z,72.07
2022-11-08T07:32:14.858Z,71.65
2022-11-08T07:37:35.637Z,71.23
2022-11-08T07:43:15.225Z,71.22
2022-11-08T07:48:37.320Z,71.27
2022-11-08T07:54:02.795Z,70.72
2022-11-08T07:59:24.209Z,69.98
2022-11-08T08:04:44.951Z,69.30
2022-11-08T08:10:06.441Z,69.40
2022-11-08T08:15:27.487Z,69.26
2022-11-08T08:20:48.396Z,68.30
2022-11-08T08:26:09.410Z,67.97
2022-11-08T08:31:30.529Z,67.06
2022-11-08T08:36:51.311Z,67.13
2022-11-08T08:42:12.419Z,66.15
2022-11-08T08:47:33.058Z,63.39
2022-11-08T08:52:59.113Z,62.79
2022-11-08T08:58:21.627Z,62.76
2022-11-08T09:03:42.426Z,63.36
2022-11-08T09:09:09.600Z,61.49
2022-11-08T09:14:30.520Z,61.21
2022-11-08T09:19:56.844Z,60.98
2022-11-08T09:25:18.706Z,61.30
2022-11-08T09:30:39.546Z,61.60
2022-11-08T09:36:01.531Z,62.19
2022-11-08T09:41:28.655Z,61.60
2022-11-08T09:46:55.538Z,61.65
2022-11-08T09:52:25.353Z,61.40
2022-11-08T09:58:11.090Z,61.94
2022-11-08T10:03:31.868Z,61.19
2022-11-08T10:08:52.715Z,61.78
2022-11-08T10:14:49.036Z,61.78
2022-11-08T10:20:30.964Z,61.58
2022-11-08T10:26:00.189Z,61.50
2022-11-08T10:31:21.372Z,61.41
2022-11-08T10:36:47.084Z,60.97
2022-11-08T10:42:07.718Z,60.26
2022-11-08T10:47:32.646Z,60.86
2022-11-08T10:53:01.866Z,60.58
2022-11-08T10:58:39.375Z,60.60
2022-11-08T11:04:23.428Z,61.04
2022-11-08T11:09:44.436Z,60.79
2022-11-08T11:15:13.998Z,60.96
2022-11-08T11:20:35.394Z,60.94
2022-11-08T11:25:56.243Z,60.59
2022-11-08T11:31:17.128Z,60.52
2022-11-08T11:36:38.206Z,60.28
2022-11-08T11:42:31.015Z,60.04
2022-11-08T11:47:56.565Z,59.95
2022-11-08T11:53:33.139Z,59.00
2022-11-08T11:59:21.657Z,59.11
2022-11-08T12:04:42.762Z,59.07
2022-11-08T12:10:03.563Z,59.47
2022-11-08T12:15:53.577Z,59.01
2022-11-08T12:21:29.140Z,59.54
2022-11-08T12:27:32.933Z,59.34
2022-11-08T12:33:07.859Z,59.43
2022-11-08T12:38:47.091Z,59.25
2022-11-08T12:44:13.883Z,59.20
2022-11-08T12:49:58.073Z,59.62
2022-11-08T12:55:35.086Z,59.88
2022-11-08T13:01:02.141Z,60.15
2022-11-08T13:06:33.770Z,59.65
2022-11-08T13:12:07.108Z,59.74
2022-11-08T13:17:29.587Z,59.42
2022-11-08T13:22:58.264Z,58.79
2022-11-08T13:28:55.126Z,59.05
2022-11-08T13:34:40.588Z,58.93
2022-11-08T13:40:31.724Z,58.83
2022-11-08T13:45:53.506Z,59.40
2022-11-08T13:51:30.668Z,59.16
